Time;durP1;ratioP1;P1;durP2;ratioP2;P2;SDS_P1;SDS_P2;PMS_P1;PMS_P2;Temp;Humidity;BMP_temperature;BMP_pressure;BME280_temperature;BME280_humidity;BME280_pressure;Samples;Min_cycle;Max_cycle;Signal;HPM_P1;HPM_P2
2024/01/05 15:19:21;;;;;;;3.58;2.13;;;;;;;0.67;100.00;91360.25;5105997;27;20205;-77
2024/01/05 15:21:47;;;;;;;4.03;2.38;;;;;;;0.70;100.00;91353.81;5097770;28;20630;-75
2024/01/05 15:24:12;;;;;;;3.22;2.10;;;;;;;0.71;100.00;91345.84;5092888;28;20035;-74
2024/01/05 15:26:45;;;;;;;4.60;1.80;;;;;;;0.75;100.00;91343.56;5087875;28;20055;-75
2024/01/05 15:29:10;;;;;;;1.85;1.50;;;;;;;0.78;100.00;91348.19;5087393;28;20028;-75
2024/01/05 15:31:36;;;;;;;2.25;1.30;;;;;;;0.79;100.00;91340.22;5078380;28;20566;-75
2024/01/05 15:34:02;;;;;;;2.40;1.40;;;;;;;0.81;100.00;91342.53;5096863;28;20506;-77
2024/01/05 15:36:27;;;;;;;1.90;1.42;;;;;;;0.83;100.00;91341.25;5057510;28;20084;-76
2024/01/05 15:38:53;;;;;;;2.67;1.65;;;;;;;0.82;100.00;91342.28;5086679;28;20051;-75
2024/01/05 15:41:19;;;;;;;3.65;2.00;;;;;;;0.82;100.00;91339.69;5087749;28;20106;-74
2024/01/05 15:43:44;;;;;;;3.10;1.98;;;;;;;0.83;100.00;91341.25;5083814;28;20063;-76
2024/01/05 15:46:10;;;;;;;3.72;2.00;;;;;;;0.84;100.00;91347.19;5088266;28;20035;-74
2024/01/05 15:48:38;;;;;;;2.55;1.50;;;;;;;0.86;100.00;91339.19;5088294;28;20134;-75
2024/01/05 15:51:16;;;;;;;1.20;1.10;;;;;;;0.86;100.00;91345.13;5089885;28;20098;-74
2024/01/05 15:53:42;;;;;;;1.33;1.20;;;;;;;0.86;100.00;91339.97;5090161;28;20122;-73
2024/01/05 15:56:09;;;;;;;2.05;1.48;;;;;;;0.84;100.00;91329.16;5088317;28;20027;-76
2024/01/05 15:58:35;;;;;;;2.08;1.60;;;;;;;0.92;100.00;91335.59;5084660;28;20163;-76
2024/01/05 16:01:01;;;;;;;3.63;1.65;;;;;;;0.91;100.00;91342.56;5067214;28;20039;-75
2024/01/05 16:03:26;;;;;;;2.13;1.48;;;;;;;0.93;100.00;91344.88;5085628;28;20086;-75
2024/01/05 16:05:52;;;;;;;5.18;1.70;;;;;;;0.95;100.00;91343.59;5084188;28;20024;-75
2024/01/05 16:08:17;;;;;;;2.70;1.90;;;;;;;0.98;100.00;91332.78;5086255;28;20043;-75
2024/01/05 16:10:43;;;;;;;1.88;1.40;;;;;;;0.98;100.00;91326.84;5083555;28;20039;-73
2024/01/05 16:13:08;;;;;;;2.05;1.40;;;;;;;0.94;100.00;91331.72;5095281;28;20040;-75
2024/01/05 16:15:34;;;;;;;1.73;1.40;;;;;;;0.93;100.00;91322.47;5082174;28;20032;-76
2024/01/05 16:18:00;;;;;;;1.20;1.10;;;;;;;0.90;100.00;91324.75;5081430;28;20079;-76
2024/01/05 16:20:25;;;;;;;4.88;1.70;;;;;;;0.87;100.00;91320.13;5076664;28;20072;-75
2024/01/05 16:22:52;;;;;;;1.80;1.48;;;;;;;0.88;100.00;91321.66;5081089;28;20037;-76
2024/01/05 16:25:17;;;;;;;1.88;1.40;;;;;;;0.86;100.00;91327.09;5081143;28;20488;-75
2024/01/05 16:27:43;;;;;;;1.65;1.35;;;;;;;0.87;100.00;91313.16;5082794;28;20034;-76
2024/01/05 16:30:09;;;;;;;1.80;1.33;;;;;;;0.90;100.00;91314.47;5062497;28;20730;-75
2024/01/05 16:32:35;;;;;;;5.75;2.83;;;;;;;0.85;100.00;91315.22;5045401;28;20047;-75
2024/01/05 16:35:01;;;;;;;5.00;2.22;;;;;;;0.91;100.00;91316.78;5070133;28;20464;-75
2024/01/05 16:37:26;;;;;;;5.18;2.88;;;;;;;0.92;100.00;91318.31;5067245;28;20131;-75
2024/01/05 16:39:52;;;;;;;5.35;3.00;;;;;;;0.88;100.00;91325.03;5067301;28;20120;-75
2024/01/05 16:42:17;;;;;;;3.97;2.08;;;;;;;0.88;100.00;91319.09;5069976;28;20034;-75
2024/01/05 16:44:43;;;;;;;2.63;1.42;;;;;;;0.85;100.00;91322.97;5069513;28;20025;-75
2024/01/05 16:47:10;;;;;;;4.15;2.15;;;;;;;0.87;100.00;91317.56;5069898;28;20040;-76
2024/01/05 16:49:35;;;;;;;4.57;2.70;;;;;;;0.86;100.00;91316.78;5065961;28;20032;-75
2024/01/05 16:52:01;;;;;;;4.70;2.88;;;;;;;0.86;100.00;91314.22;5068136;28;20044;-76
2024/01/05 16:54:27;;;;;;;4.20;2.50;;;;;;;0.87;100.00;91305.44;5067926;28;20039;-74
2024/01/05 16:56:53;;;;;;;4.43;2.60;;;;;;;0.83;100.00;91300.03;5064790;28;20538;-75
2024/01/05 16:59:19;;;;;;;13.07;5.43;;;;;;;0.86;100.00;91311.63;5064602;28;20036;-75
2024/01/05 17:01:45;;;;;;;25.83;12.88;;;;;;;0.85;100.00;91307.50;5064259;28;20693;-75
2024/01/05 17:04:12;;;;;;;14.32;7.80;;;;;;;0.82;100.00;91303.63;5069600;28;20034;-76
2024/01/05 17:06:40;;;;;;;18.92;10.02;;;;;;;0.78;100.00;91305.16;5066235;28;20040;-76
2024/01/05 17:09:06;;;;;;;15.52;9.68;;;;;;;0.79;100.00;91305.97;5065229;28;20488;-75
2024/01/05 17:11:31;;;;;;;14.23;9.73;;;;;;;0.76;100.00;91306.44;5046780;28;20039;-77
2024/01/05 17:13:57;;;;;;;15.68;8.50;;;;;;;0.74;100.00;91311.84;5030408;28;20488;-76
2024/01/05 17:16:23;;;;;;;7.20;5.05;;;;;;;0.73;100.00;91309.53;5062870;28;20037;-76
2024/01/05 17:18:50;;;;;;;6.00;3.78;;;;;;;0.74;100.00;91305.94;5075038;28;20396;-76
2024/01/05 17:21:15;;;;;;;5.57;3.50;;;;;;;0.74;100.00;91301.53;5080480;28;20036;-76
2024/01/05 17:23:42;;;;;;;6.75;4.72;;;;;;;0.81;100.00;91306.44;5083258;28;20028;-76
2024/01/05 17:26:08;;;;;;;4.47;3.10;;;;;;;0.82;100.00;91302.88;5089587;28;20040;-76
2024/01/05 17:28:33;;;;;;;3.47;1.90;;;;;;;0.82;100.00;91302.88;5087762;28;20099;-76
2024/01/05 17:30:59;;;;;;;2.25;1.52;;;;;;;0.81;100.00;91309.81;5088735;28;20039;-76
2024/01/05 17:33:25;;;;;;;3.17;1.80;;;;;;;0.77;100.00;91305.44;5070173;28;20247;-76
2024/01/05 17:35:55;;;;;;;4.68;2.55;;;;;;;0.75;100.00;91303.09;5088967;28;20411;-76
2024/01/05 17:38:20;;;;;;;7.07;3.53;;;;;;;0.78;100.00;91304.41;5089171;28;20108;-76
2024/01/05 17:40:46;;;;;;;5.40;2.80;;;;;;;0.79;100.00;91299.00;5087824;28;20570;-76
2024/01/05 17:43:11;;;;;;;5.55;2.90;;;;;;;0.79;100.00;91288.69;5089316;28;20044;-76
2024/01/05 17:45:37;;;;;;;3.38;1.90;;;;;;;0.81;100.00;91296.94;5083109;28;20036;-76
2024/01/05 17:48:03;;;;;;;3.30;2.03;;;;;;;0.80;100.00;91284.31;5088923;28;20039;-76
2024/01/05 17:50:29;;;;;;;6.72;3.58;;;;;;;0.75;100.00;91287.66;5088332;28;20028;-76
2024/01/05 17:52:55;;;;;;;5.97;3.50;;;;;;;0.78;100.00;91281.22;5087576;28;20032;-76
2024/01/05 17:55:20;;;;;;;7.82;3.95;;;;;;;0.77;100.00;91277.09;5085947;28;20032;-76
2024/01/05 17:57:46;;;;;;;7.05;3.95;;;;;;;0.77;100.00;91275.28;5088936;28;20415;-76
2024/01/05 18:00:12;;;;;;;6.65;3.63;;;;;;;0.80;100.00;91266.28;5087091;28;20031;-76
2024/01/05 18:02:37;;;;;;;5.65;3.17;;;;;;;0.78;100.00;91271.69;5085913;28;20783;-76
2024/01/05 18:05:04;;;;;;;12.50;5.65;;;;;;;0.72;100.00;91259.84;5087446;28;20030;-76
2024/01/05 18:07:29;;;;;;;28.25;10.10;;;;;;;0.77;100.00;91270.13;5071739;28;20039;-76
2024/01/05 18:09:55;;;;;;;7.10;3.58;;;;;;;0.77;100.00;91265.00;5089015;28;20097;-76
2024/01/05 18:12:20;;;;;;;3.85;2.45;;;;;;;0.75;100.00;91250.81;5087734;28;20043;-76
2024/01/05 18:14:46;;;;;;;5.63;2.92;;;;;;;0.78;100.00;91265.75;5088034;28;20127;-77
2024/01/05 18:17:12;;;;;;;11.98;6.00;;;;;;;0.78;100.00;91255.44;5088208;28;20044;-77
2024/01/05 18:19:38;;;;;;;6.65;3.08;;;;;;;0.81;100.00;91262.66;5067021;28;20040;-77
2024/01/05 18:22:04;;;;;;;8.98;3.63;;;;;;;0.77;100.00;91264.22;5086453;28;20043;-77
2024/01/05 18:24:29;;;;;;;6.68;3.53;;;;;;;0.75;100.00;91255.97;5088195;28;20471;-77
2024/01/05 18:26:55;;;;;;;9.90;4.30;;;;;;;0.83;100.00;91253.66;5086852;28;20089;-77
2024/01/05 18:29:21;;;;;;;13.18;5.90;;;;;;;0.85;100.00;91257.78;5084479;28;20183;-76
2024/01/05 18:31:46;;;;;;;32.13;16.83;;;;;;;0.98;100.00;91263.19;5087074;28;20032;-76
2024/01/05 18:34:12;;;;;;;12.90;7.93;;;;;;;0.97;100.00;91253.16;5085602;28;20324;-76
2024/01/05 18:36:43;;;;;;;5.30;2.20;;;;;;;0.90;100.00;91252.63;5087858;28;20043;-76
2024/01/05 18:39:09;;;;;;;3.78;2.08;;;;;;;0.89;100.00;91257.00;5086172;28;20093;-76
2024/01/05 18:41:35;;;;;;;2.65;1.70;;;;;;;0.88;100.00;91252.91;5085532;28;20439;-77
2024/01/05 18:44:04;;;;;;;2.25;1.60;;;;;;;0.89;100.00;91251.84;5083810;28;20043;-77
2024/01/05 18:46:29;;;;;;;3.25;2.25;;;;;;;0.89;100.00;91245.94;5087236;28;20136;-77
2024/01/05 18:48:55;;;;;;;5.10;1.73;;;;;;;0.90;100.00;91250.84;5086955;28;20038;-77
2024/01/05 18:51:21;;;;;;;3.63;2.00;;;;;;;0.92;100.00;91250.56;5086433;28;20028;-76
2024/01/05 18:53:47;;;;;;;5.93;2.60;;;;;;;0.92;100.00;91246.19;5087391;28;20574;-77
2024/01/05 18:56:12;;;;;;;3.72;1.88;;;;;;;0.97;100.00;91248.78;5087126;28;20119;-77
2024/01/05 18:58:39;;;;;;;1.42;1.30;;;;;;;0.97;100.00;91246.19;5085808;28;20064;-78
2024/01/05 19:01:04;;;;;;;5.43;2.65;;;;;;;0.97;100.00;91238.47;5087136;28;20020;-76
2024/01/05 19:03:30;;;;;;;11.77;6.13;;;;;;;1.00;100.00;91242.31;5081698;28;20042;-77
2024/01/05 19:05:56;;;;;;;11.95;6.30;;;;;;;0.94;100.00;91238.97;5084691;28;20096;-77
2024/01/05 19:08:22;;;;;;;7.95;4.55;;;;;;;0.93;100.00;91234.84;5087149;28;20115;-77
2024/01/05 19:10:47;;;;;;;7.25;3.60;;;;;;;0.95;100.00;91240.53;5084692;28;20031;-77
2024/01/05 19:13:14;;;;;;;5.32;3.45;;;;;;;0.91;100.00;91244.63;5083759;28;20093;-76
2024/01/05 19:15:41;;;;;;;4.22;2.80;;;;;;;0.91;100.00;91234.34;5087164;28;20115;-75
2024/01/05 19:18:06;;;;;;;2.90;2.10;;;;;;;0.90;100.00;91235.38;5072517;28;23828;-75
2024/01/05 19:20:32;;;;;;;4.13;2.33;;;;;;;0.94;100.00;91230.47;5066364;28;20036;-75
2024/01/05 19:22:58;;;;;;;10.75;4.88;;;;;;;0.94;100.00;91223.50;5066846;28;20115;-75
2024/01/05 19:25:23;;;;;;;14.88;8.77;;;;;;;0.98;100.00;91218.63;5067039;28;20067;-76
2024/01/05 19:27:50;;;;;;;8.73;5.53;;;;;;;0.94;100.00;91217.59;5040596;28;20068;-76
2024/01/05 19:30:17;;;;;;;8.10;5.13;;;;;;;0.94;100.00;91223.50;5063712;28;20586;-76
2024/01/05 19:32:49;;;;;;;7.05;4.47;;;;;;;1.02;100.00;91211.91;5065380;28;20016;-76
2024/01/05 19:35:15;;;;;;;5.70;3.00;;;;;;;1.03;100.00;91209.06;5062225;28;20556;-75
2024/01/05 19:37:42;;;;;;;4.88;3.00;;;;;;;1.03;100.00;91203.16;5063144;28;20051;-76
2024/01/05 19:40:08;;;;;;;5.38;3.20;;;;;;;1.04;100.00;91200.31;5067056;28;20032;-75
2024/01/05 19:42:35;;;;;;;5.35;3.17;;;;;;;1.05;100.00;91198.50;5064561;28;20514;-75
2024/01/05 19:45:05;;;;;;;4.20;2.70;;;;;;;1.08;100.00;91202.38;5065161;28;21319;-75
2024/01/05 19:47:31;;;;;;;4.57;2.75;;;;;;;1.06;100.00;91197.50;5066650;28;20137;-75
2024/01/05 19:49:57;;;;;;;6.85;2.78;;;;;;;1.10;100.00;91197.72;5048905;28;20109;-75
2024/01/05 19:52:23;;;;;;;7.32;4.30;;;;;;;1.12;100.00;91193.09;5047905;28;20104;-76
2024/01/05 19:54:52;;;;;;;6.78;3.20;;;;;;;1.11;100.00;91192.31;5060417;28;20559;-76
2024/01/05 19:57:18;;;;;;;7.05;3.42;;;;;;;1.09;100.00;91183.31;5066074;28;20668;-75
2024/01/05 19:59:43;;;;;;;4.05;2.30;;;;;;;1.16;100.00;91192.31;5063962;28;20079;-75
2024/01/05 20:02:09;;;;;;;3.28;1.80;;;;;;;1.16;100.00;91176.84;5064914;28;20531;-75
2024/01/05 20:04:35;;;;;;;2.85;1.75;;;;;;;1.17;100.00;91182.75;5066294;28;20036;-74
2024/01/05 20:07:00;;;;;;;3.00;1.88;;;;;;;1.19;100.00;91175.53;5063378;28;20496;-75
2024/01/05 20:09:27;;;;;;;3.13;1.80;;;;;;;1.20;100.00;91171.94;5065961;28;20024;-75
2024/01/05 20:11:53;;;;;;;4.65;2.20;;;;;;;1.23;100.00;91166.25;5047793;28;20037;-75
2024/01/05 20:14:19;;;;;;;6.93;3.10;;;;;;;1.23;100.00;91161.09;5067035;28;20059;-75
2024/01/05 20:16:46;;;;;;;5.93;3.10;;;;;;;1.24;100.00;91154.94;5064328;28;20095;-75
2024/01/05 20:19:14;;;;;;;5.35;2.58;;;;;;;1.29;100.00;91147.19;5082351;28;20623;-75
2024/01/05 20:21:40;;;;;;;3.40;1.98;;;;;;;1.25;100.00;91157.22;5086999;28;20040;-75
2024/01/05 20:24:05;;;;;;;2.28;1.52;;;;;;;1.28;100.00;91145.63;5090483;28;20036;-75
2024/01/05 20:26:31;;;;;;;1.90;1.40;;;;;;;1.32;100.00;91148.47;5085397;28;20046;-76
2024/01/05 20:28:58;;;;;;;6.22;3.85;;;;;;;1.33;100.00;91153.38;5088447;28;20032;-75
2024/01/05 20:31:24;;;;;;;930.55;22.85;;;;;;;1.40;100.00;91159.00;5085747;28;20028;-75
2024/01/05 20:33:51;;;;;;;352.92;10.52;;;;;;;1.19;100.00;91154.94;5081070;28;20119;-75
2024/01/05 20:36:17;;;;;;;111.82;5.50;;;;;;;1.14;100.00;91154.94;5083573;28;20041;-75
2024/01/05 20:38:44;;;;;;;172.25;6.53;;;;;;;1.09;100.00;91158.31;5086453;28;20499;-76
2024/01/05 20:41:09;;;;;;;165.48;5.72;;;;;;;1.04;100.00;91156.50;5087991;28;20040;-76
2024/01/05 20:43:35;;;;;;;4.50;2.80;;;;;;;1.06;100.00;91150.31;5088545;28;20228;-75
2024/01/05 20:46:00;;;;;;;82.18;4.50;;;;;;;1.04;100.00;91145.44;5085927;28;20055;-75
2024/01/05 20:48:26;;;;;;;5.03;3.22;;;;;;;1.08;100.00;91150.81;5089193;28;20028;-76
2024/01/05 20:50:51;;;;;;;3.05;2.00;;;;;;;1.11;100.00;91150.31;5089696;28;20040;-75
2024/01/05 20:53:17;;;;;;;2.50;1.70;;;;;;;1.13;100.00;91159.34;5088415;28;20039;-75
2024/01/05 20:55:43;;;;;;;2.33;1.55;;;;;;;1.15;100.00;91157.28;5085079;28;20040;-75
2024/01/05 20:58:12;;;;;;;1.92;1.45;;;;;;;1.24;100.00;91165.25;5089238;28;20069;-75
2024/01/05 21:00:38;;;;;;;3.60;2.00;;;;;;;1.23;100.00;91158.53;5083737;28;20127;-76
2024/01/05 21:03:04;;;;;;;2.63;1.67;;;;;;;1.28;100.00;91168.81;5087620;28;20118;-75
2024/01/05 21:05:31;;;;;;;2.30;1.60;;;;;;;1.29;100.00;91169.63;5085506;28;20129;-76
2024/01/05 21:07:57;;;;;;;2.25;1.60;;;;;;;1.32;100.00;91169.84;5081883;28;20051;-77
2024/01/05 21:10:22;;;;;;;3.05;1.90;;;;;;;1.32;100.00;91169.84;5088642;28;20032;-75
2024/01/05 21:12:48;;;;;;;3.50;2.10;;;;;;;1.32;100.00;91169.09;5069581;28;20147;-75
2024/01/05 21:15:14;;;;;;;8.18;2.90;;;;;;;1.32;100.00;91162.13;5089072;28;20039;-75
2024/01/05 21:17:39;;;;;;;5.35;2.92;;;;;;;1.34;100.00;91169.59;5088437;28;20044;-75
2024/01/05 21:20:06;;;;;;;5.43;2.60;;;;;;;1.32;100.00;91151.81;5089887;28;20052;-75
2024/01/05 21:22:31;;;;;;;3.88;2.10;;;;;;;1.31;100.00;91154.66;5084548;28;20035;-75
2024/01/05 21:24:57;;;;;;;2.92;1.88;;;;;;;1.28;100.00;91155.16;5085708;28;20038;-75
2024/01/05 21:27:23;;;;;;;3.05;1.88;;;;;;;1.24;100.00;91153.13;5079707;28;20040;-75
2024/01/05 21:29:49;;;;;;;3.72;2.05;;;;;;;1.21;100.00;91145.91;5083203;28;20044;-76
2024/01/05 21:32:19;;;;;;;4.03;2.20;;;;;;;1.22;100.00;91151.84;5080138;28;20032;-76
2024/01/05 21:34:45;;;;;;;3.38;2.13;;;;;;;1.24;100.00;91139.47;5080321;28;20036;-75
2024/01/05 21:37:12;;;;;;;3.13;2.00;;;;;;;1.12;100.00;91120.91;5085578;28;20063;-76
2024/01/05 21:39:38;;;;;;;3.45;2.05;;;;;;;1.26;100.00;91145.09;5084063;28;20048;-75
2024/01/05 21:42:04;;;;;;;3.35;1.83;;;;;;;1.21;100.00;91139.97;5084651;28;20074;-75
2024/01/05 21:44:30;;;;;;;2.50;1.70;;;;;;;1.26;100.00;91150.25;5087776;28;20028;-75
2024/01/05 21:46:56;;;;;;;2.75;1.90;;;;;;;1.28;100.00;91160.31;5086939;28;20039;-75
2024/01/05 21:49:24;;;;;;;2.30;1.48;;;;;;;1.30;100.00;91163.41;5089762;28;20056;-75
2024/01/05 21:51:50;;;;;;;2.78;1.70;;;;;;;1.30;100.00;91159.03;5080878;28;20027;-75
2024/01/05 21:54:16;;;;;;;2.25;1.52;;;;;;;1.31;100.00;91150.28;5076460;28;20131;-75
2024/01/05 21:56:42;;;;;;;2.13;1.50;;;;;;;1.32;100.00;91151.81;5081723;28;20185;-75
2024/01/05 21:59:08;;;;;;;8.75;5.18;;;;;;;1.30;100.00;91140.97;5083001;28;20472;-75
2024/01/05 22:01:34;;;;;;;5.50;3.38;;;;;;;1.32;100.00;91149.22;5073619;28;20530;-75
2024/01/05 22:04:02;;;;;;;2.08;1.40;;;;;;;1.28;100.00;91140.47;5078344;28;20036;-76
2024/01/05 22:06:28;;;;;;;2.15;1.30;;;;;;;1.32;100.00;91143.31;5074175;28;20087;-75
2024/01/05 22:08:54;;;;;;;3.08;1.70;;;;;;;1.30;100.00;91140.22;5075416;28;20047;-75
2024/01/05 22:11:19;;;;;;;35.72;3.33;;;;;;;1.28;100.00;91135.31;5081785;28;20462;-75
2024/01/05 22:13:45;;;;;;;12.68;2.67;;;;;;;1.25;100.00;91135.84;5075973;28;20445;-75
